sensor_id;sensor_type;location;lat;lon;timestamp;pressure;altitude;pressure_sealevel;temperature;humidity
10079;BME280;5078;42.544;22.966;2023-05-19T00:02:00;94112.66;;;11.14;100.00
10079;BME280;5078;42.544;22.966;2023-05-19T00:04:30;94108.63;;;11.26;100.00
10079;BME280;5078;42.544;22.966;2023-05-19T00:06:58;94104.22;;;11.41;100.00
10079;BME280;5078;42.544;22.966;2023-05-19T00:09:27;94098.50;;;11.53;100.00
10079;BME280;5078;42.544;22.966;2023-05-19T00:11:54;94102.03;;;11.68;100.00
10079;BME280;5078;42.544;22.966;2023-05-19T00:14:22;94103.66;;;11.77;100.00
10079;BME280;5078;42.544;22.966;2023-05-19T00:16:49;94098.34;;;11.77;100.00
10079;BME280;5078;42.544;22.966;2023-05-19T00:19:16;94096.88;;;11.75;100.00
10079;BME280;5078;42.544;22.966;2023-05-19T00:21:43;94097.00;;;11.81;100.00
10079;BME280;5078;42.544;22.966;2023-05-19T00:24:10;94083.94;;;11.72;100.00
10079;BME280;5078;42.544;22.966;2023-05-19T00:26:38;94086.38;;;11.81;100.00
10079;BME280;5078;42.544;22.966;2023-05-19T00:29:05;94091.09;;;11.71;100.00
10079;BME280;5078;42.544;22.966;2023-05-19T00:31:32;94090.72;;;11.74;100.00
10079;BME280;5078;42.544;22.966;2023-05-19T00:33:59;94094.78;;;11.85;100.00
10079;BME280;5078;42.544;22.966;2023-05-19T00:36:25;94095.22;;;11.74;100.00
10079;BME280;5078;42.544;22.966;2023-05-19T00:38:52;94071.91;;;11.61;100.00
10079;BME280;5078;42.544;22.966;2023-05-19T00:41:19;94094.78;;;11.93;100.00
10079;BME280;5078;42.544;22.966;2023-05-19T00:43:49;94089.47;;;11.93;100.00
10079;BME280;5078;42.544;22.966;2023-05-19T00:46:17;94093.69;;;11.79;100.00
10079;BME280;5078;42.544;22.966;2023-05-19T00:48:43;94089.03;;;11.81;100.00
10079;BME280;5078;42.544;22.966;2023-05-19T00:51:11;94085.94;;;11.70;100.00
10079;BME280;5078;42.544;22.966;2023-05-19T00:53:41;94086.06;;;11.76;100.00
10079;BME280;5078;42.544;22.966;2023-05-19T00:56:13;94088.31;;;11.87;100.00
10079;BME280;5078;42.544;22.966;2023-05-19T00:58:40;94081.06;;;11.81;100.00
10079;BME280;5078;42.544;22.966;2023-05-19T01:01:08;94087.34;;;11.80;100.00
10079;BME280;5078;42.544;22.966;2023-05-19T01:03:38;94098.09;;;11.64;100.00
10079;BME280;5078;42.544;22.966;2023-05-19T01:06:07;94087.56;;;11.56;100.00
10079;BME280;5078;42.544;22.966;2023-05-19T01:08:35;94088.38;;;11.56;100.00
10079;BME280;5078;42.544;22.966;2023-05-19T01:11:03;94097.81;;;11.28;100.00
10079;BME280;5078;42.544;22.966;2023-05-19T01:13:30;94091.69;;;11.27;100.00
10079;BME280;5078;42.544;22.966;2023-05-19T01:16:00;94079.44;;;11.18;100.00
10079;BME280;5078;42.544;22.966;2023-05-19T01:18:46;94065.63;;;10.99;100.00
10079;BME280;5078;42.544;22.966;2023-05-19T01:21:39;94075.72;;;11.04;100.00
10079;BME280;5078;42.544;22.966;2023-05-19T01:24:23;94052.72;;;10.88;100.00
10079;BME280;5078;42.544;22.966;2023-05-19T01:30:29;94073.84;;;10.82;100.00
10079;BME280;5078;42.544;22.966;2023-05-19T01:33:00;94075.66;;;10.81;100.00
10079;BME280;5078;42.544;22.966;2023-05-19T01:35:28;94080.16;;;10.72;100.00
10079;BME280;5078;42.544;22.966;2023-05-19T01:37:58;94079.84;;;10.67;100.00
10079;BME280;5078;42.544;22.966;2023-05-19T01:40:26;94083.34;;;10.60;100.00
10079;BME280;5078;42.544;22.966;2023-05-19T01:42:55;94082.69;;;10.57;100.00
10079;BME280;5078;42.544;22.966;2023-05-19T01:45:23;94075.09;;;10.54;100.00
10079;BME280;5078;42.544;22.966;2023-05-19T01:47:53;94076.59;;;10.41;100.00
10079;BME280;5078;42.544;22.966;2023-05-19T01:50:21;94081.38;;;10.45;100.00
10079;BME280;5078;42.544;22.966;2023-05-19T01:52:48;94072.63;;;10.45;100.00
10079;BME280;5078;42.544;22.966;2023-05-19T01:55:15;94065.88;;;10.34;100.00
10079;BME280;5078;42.544;22.966;2023-05-19T01:57:47;94068.16;;;10.37;100.00
10079;BME280;5078;42.544;22.966;2023-05-19T02:00:23;94075.78;;;10.24;100.00
10079;BME280;5078;42.544;22.966;2023-05-19T02:03:06;94074.13;;;10.23;100.00
10079;BME280;5078;42.544;22.966;2023-05-19T02:05:41;94077.63;;;10.31;100.00
10079;BME280;5078;42.544;22.966;2023-05-19T02:08:14;94069.31;;;10.43;100.00
10079;BME280;5078;42.544;22.966;2023-05-19T02:10:49;94062.16;;;10.51;100.00
10079;BME280;5078;42.544;22.966;2023-05-19T02:13:19;94061.84;;;10.38;100.00
10079;BME280;5078;42.544;22.966;2023-05-19T02:15:49;94070.97;;;10.44;100.00
10079;BME280;5078;42.544;22.966;2023-05-19T02:18:19;94069.63;;;10.23;100.00
10079;BME280;5078;42.544;22.966;2023-05-19T02:20:46;94072.16;;;10.17;100.00
10079;BME280;5078;42.544;22.966;2023-05-19T02:23:13;94074.63;;;10.10;100.00
10079;BME280;5078;42.544;22.966;2023-05-19T02:25:40;94075.47;;;10.10;100.00
10079;BME280;5078;42.544;22.966;2023-05-19T02:28:07;94079.28;;;10.16;100.00
10079;BME280;5078;42.544;22.966;2023-05-19T02:30:33;94080.44;;;10.13;100.00
10079;BME280;5078;42.544;22.966;2023-05-19T02:33:00;94084.91;;;10.21;100.00
10079;BME280;5078;42.544;22.966;2023-05-19T02:35:28;94089.69;;;10.18;100.00
10079;BME280;5078;42.544;22.966;2023-05-19T02:37:55;94089.53;;;10.35;100.00
10079;BME280;5078;42.544;22.966;2023-05-19T02:40:22;94085.56;;;10.31;100.00
10079;BME280;5078;42.544;22.966;2023-05-19T02:42:48;94088.91;;;10.33;100.00
10079;BME280;5078;42.544;22.966;2023-05-19T02:45:15;94098.63;;;10.25;100.00
10079;BME280;5078;42.544;22.966;2023-05-19T02:47:42;94094.00;;;10.27;100.00
10079;BME280;5078;42.544;22.966;2023-05-19T02:50:09;94095.34;;;10.14;100.00
10079;BME280;5078;42.544;22.966;2023-05-19T02:52:37;94094.00;;;10.19;100.00
10079;BME280;5078;42.544;22.966;2023-05-19T02:55:04;94098.66;;;10.17;100.00
10079;BME280;5078;42.544;22.966;2023-05-19T02:57:34;94100.63;;;10.14;100.00
10079;BME280;5078;42.544;22.966;2023-05-19T03:00:01;94102.28;;;10.07;100.00
10079;BME280;5078;42.544;22.966;2023-05-19T03:02:28;94100.47;;;10.08;100.00
10079;BME280;5078;42.544;22.966;2023-05-19T03:04:54;94089.03;;;10.07;100.00
10079;BME280;5078;42.544;22.966;2023-05-19T03:07:22;94102.63;;;10.04;100.00
10079;BME280;5078;42.544;22.966;2023-05-19T03:09:51;94112.22;;;9.97;100.00
10079;BME280;5078;42.544;22.966;2023-05-19T03:12:18;94113.22;;;9.88;100.00
10079;BME280;5078;42.544;22.966;2023-05-19T03:14:45;94111.56;;;9.87;100.00
10079;BME280;5078;42.544;22.966;2023-05-19T03:17:11;94113.56;;;9.85;100.00
10079;BME280;5078;42.544;22.966;2023-05-19T03:19:38;94111.56;;;9.70;100.00
10079;BME280;5078;42.544;22.966;2023-05-19T03:22:05;94104.94;;;9.66;100.00
10079;BME280;5078;42.544;22.966;2023-05-19T03:24:32;94114.56;;;9.84;100.00
10079;BME280;5078;42.544;22.966;2023-05-19T03:27:00;94108.22;;;9.60;100.00
10079;BME280;5078;42.544;22.966;2023-05-19T03:29:27;94120.47;;;9.45;100.00
10079;BME280;5078;42.544;22.966;2023-05-19T03:31:53;94120.66;;;9.60;100.00
10079;BME280;5078;42.544;22.966;2023-05-19T03:34:20;94124.94;;;9.53;100.00
10079;BME280;5078;42.544;22.966;2023-05-19T03:36:47;94124.06;;;9.27;100.00
10079;BME280;5078;42.544;22.966;2023-05-19T03:39:14;94123.28;;;9.60;100.00
10079;BME280;5078;42.544;22.966;2023-05-19T03:41:41;94129.25;;;9.62;100.00
10079;BME280;5078;42.544;22.966;2023-05-19T03:44:09;94125.63;;;9.96;100.00
10079;BME280;5078;42.544;22.966;2023-05-19T03:46:36;94131.94;;;10.11;100.00
10079;BME280;5078;42.544;22.966;2023-05-19T03:49:02;94134.25;;;10.14;100.00
10079;BME280;5078;42.544;22.966;2023-05-19T03:51:29;94129.94;;;10.13;100.00
10079;BME280;5078;42.544;22.966;2023-05-19T03:53:56;94131.59;;;10.06;100.00
10079;BME280;5078;42.544;22.966;2023-05-19T03:56:22;94127.78;;;10.17;100.00
10079;BME280;5078;42.544;22.966;2023-05-19T03:58:51;94137.06;;;10.04;100.00
10079;BME280;5078;42.544;22.966;2023-05-19T04:01:20;94130.09;;;10.20;100.00
10079;BME280;5078;42.544;22.966;2023-05-19T04:03:47;94120.00;;;10.15;100.00
10079;BME280;5078;42.544;22.966;2023-05-19T04:06:14;94133.41;;;9.97;100.00
10079;BME280;5078;42.544;22.966;2023-05-19T04:08:40;94137.56;;;10.00;100.00
10079;BME280;5078;42.544;22.966;2023-05-19T04:11:08;94131.41;;;10.15;100.00
10079;BME280;5078;42.544;22.966;2023-05-19T04:13:35;94138.72;;;10.13;100.00
10079;BME280;5078;42.544;22.966;2023-05-19T04:16:02;94133.59;;;10.36;100.00
10079;BME280;5078;42.544;22.966;2023-05-19T04:18:30;94138.03;;;10.69;100.00
10079;BME280;5078;42.544;22.966;2023-05-19T04:20:57;94139.16;;;10.74;100.00
10079;BME280;5078;42.544;22.966;2023-05-19T04:23:23;94136.91;;;10.47;100.00
10079;BME280;5078;42.544;22.966;2023-05-19T04:25:50;94138.22;;;10.43;100.00
10079;BME280;5078;42.544;22.966;2023-05-19T04:28:18;94132.09;;;10.42;100.00
10079;BME280;5078;42.544;22.966;2023-05-19T04:30:45;94125.34;;;10.31;100.00
10079;BME280;5078;42.544;22.966;2023-05-19T04:33:12;94122.47;;;10.49;100.00
10079;BME280;5078;42.544;22.966;2023-05-19T04:35:40;94126.28;;;10.22;100.00
10079;BME280;5078;42.544;22.966;2023-05-19T04:38:08;94129.44;;;10.50;100.00
10079;BME280;5078;42.544;22.966;2023-05-19T04:40:36;94133.03;;;10.66;100.00
10079;BME280;5078;42.544;22.966;2023-05-19T04:43:04;94137.97;;;10.85;100.00
10079;BME280;5078;42.544;22.966;2023-05-19T04:45:31;94134.28;;;10.94;100.00
10079;BME280;5078;42.544;22.966;2023-05-19T04:47:58;94131.41;;;11.12;100.00
10079;BME280;5078;42.544;22.966;2023-05-19T04:50:26;94142.13;;;11.27;100.00
10079;BME280;5078;42.544;22.966;2023-05-19T04:52:55;94141.16;;;11.20;100.00
10079;BME280;5078;42.544;22.966;2023-05-19T04:55:23;94149.72;;;11.30;100.00
10079;BME280;5078;42.544;22.966;2023-05-19T04:57:50;94145.53;;;11.44;100.00
10079;BME280;5078;42.544;22.966;2023-05-19T05:00:17;94152.25;;;11.55;100.00
10079;BME280;5078;42.544;22.966;2023-05-19T05:02:44;94155.00;;;11.70;100.00
10079;BME280;5078;42.544;22.966;2023-05-19T05:05:11;94153.63;;;12.05;100.00
10079;BME280;5078;42.544;22.966;2023-05-19T05:07:38;94142.59;;;12.16;100.00
10079;BME280;5078;42.544;22.966;2023-05-19T05:10:08;94151.66;;;12.45;100.00
10079;BME280;5078;42.544;22.966;2023-05-19T05:12:35;94152.38;;;12.39;100.00
10079;BME280;5078;42.544;22.966;2023-05-19T05:15:03;94164.38;;;12.35;100.00
10079;BME280;5078;42.544;22.966;2023-05-19T05:17:31;94162.06;;;12.69;100.00
10079;BME280;5078;42.544;22.966;2023-05-19T05:20:00;94156.22;;;13.19;100.00
10079;BME280;5078;42.544;22.966;2023-05-19T05:22:27;94167.69;;;13.19;100.00
10079;BME280;5078;42.544;22.966;2023-05-19T05:24:54;94165.03;;;13.64;100.00
10079;BME280;5078;42.544;22.966;2023-05-19T05:27:22;94172.03;;;13.86;100.00
10079;BME280;5078;42.544;22.966;2023-05-19T05:29:49;94164.44;;;14.26;100.00
10079;BME280;5078;42.544;22.966;2023-05-19T05:32:16;94159.25;;;14.61;100.00
10079;BME280;5078;42.544;22.966;2023-05-19T05:34:42;94163.72;;;15.17;100.00
10079;BME280;5078;42.544;22.966;2023-05-19T05:37:09;94170.06;;;15.44;100.00
10079;BME280;5078;42.544;22.966;2023-05-19T05:39:36;94170.63;;;15.74;100.00
10079;BME280;5078;42.544;22.966;2023-05-19T05:42:03;94166.94;;;15.82;100.00
10079;BME280;5078;42.544;22.966;2023-05-19T05:44:31;94171.22;;;16.31;100.00
10079;BME280;5078;42.544;22.966;2023-05-19T05:47:00;94173.28;;;16.35;100.00
10079;BME280;5078;42.544;22.966;2023-05-19T05:49:28;94164.25;;;16.63;100.00
10079;BME280;5078;42.544;22.966;2023-05-19T05:51:55;94165.28;;;15.39;100.00
10079;BME280;5078;42.544;22.966;2023-05-19T05:54:22;94164.38;;;16.08;100.00
10079;BME280;5078;42.544;22.966;2023-05-19T05:56:50;94165.09;;;15.76;100.00
10079;BME280;5078;42.544;22.966;2023-05-19T05:59:17;94159.53;;;15.70;100.00
10079;BME280;5078;42.544;22.966;2023-05-19T06:01:46;94159.88;;;16.42;100.00
10079;BME280;5078;42.544;22.966;2023-05-19T06:04:13;94162.47;;;16.02;100.00
10079;BME280;5078;42.544;22.966;2023-05-19T06:06:39;94159.91;;;16.35;100.00
10079;BME280;5078;42.544;22.966;2023-05-19T06:09:06;94136.91;;;15.80;100.00
10079;BME280;5078;42.544;22.966;2023-05-19T06:11:33;94174.63;;;16.05;100.00
10079;BME280;5078;42.544;22.966;2023-05-19T06:13:59;94167.81;;;15.89;100.00
10079;BME280;5078;42.544;22.966;2023-05-19T06:16:26;94167.00;;;16.02;100.00
10079;BME280;5078;42.544;22.966;2023-05-19T06:18:54;94169.31;;;16.11;100.00
10079;BME280;5078;42.544;22.966;2023-05-19T06:21:21;94170.53;;;16.09;100.00
10079;BME280;5078;42.544;22.966;2023-05-19T06:23:47;94172.25;;;16.56;100.00
10079;BME280;5078;42.544;22.966;2023-05-19T06:26:14;94170.81;;;16.67;100.00
10079;BME280;5078;42.544;22.966;2023-05-19T06:28:41;94173.91;;;17.37;100.00
10079;BME280;5078;42.544;22.966;2023-05-19T06:31:07;94165.91;;;17.11;98.50
10079;BME280;5078;42.544;22.966;2023-05-19T06:33:34;94165.69;;;17.06;100.00
10079;BME280;5078;42.544;22.966;2023-05-19T06:36:03;94166.13;;;17.74;96.46
10079;BME280;5078;42.544;22.966;2023-05-19T06:38:29;94163.25;;;18.27;91.89
10079;BME280;5078;42.544;22.966;2023-05-19T06:40:56;94170.91;;;17.65;93.82
10079;BME280;5078;42.544;22.966;2023-05-19T06:43:23;94170.97;;;18.10;92.64
10079;BME280;5078;42.544;22.966;2023-05-19T06:45:50;94161.41;;;18.53;90.84
10079;BME280;5078;42.544;22.966;2023-05-19T06:48:16;94155.81;;;18.54;87.53
10079;BME280;5078;42.544;22.966;2023-05-19T06:50:43;94167.31;;;18.62;88.20
10079;BME280;5078;42.544;22.966;2023-05-19T06:53:11;94165.41;;;19.01;83.70
10079;BME280;5078;42.544;22.966;2023-05-19T06:55:38;94156.69;;;19.86;79.51
10079;BME280;5078;42.544;22.966;2023-05-19T06:58:05;94160.00;;;20.18;76.21
10079;BME280;5078;42.544;22.966;2023-05-19T07:00:31;94144.94;;;20.59;69.63
10079;BME280;5078;42.544;22.966;2023-05-19T07:02:58;94147.47;;;20.54;68.72
10079;BME280;5078;42.544;22.966;2023-05-19T07:05:25;94138.75;;;19.43;76.90
10079;BME280;5078;42.544;22.966;2023-05-19T07:07:51;94140.34;;;20.17;71.88
10079;BME280;5078;42.544;22.966;2023-05-19T07:10:20;94144.41;;;20.08;70.52
10079;BME280;5078;42.544;22.966;2023-05-19T07:12:46;94143.78;;;20.55;69.76
10079;BME280;5078;42.544;22.966;2023-05-19T07:15:13;94145.53;;;20.31;67.84
10079;BME280;5078;42.544;22.966;2023-05-19T07:17:40;94136.56;;;20.37;70.62
10079;BME280;5078;42.544;22.966;2023-05-19T07:20:07;94149.00;;;20.92;66.99
10079;BME280;5078;42.544;22.966;2023-05-19T07:22:35;94149.34;;;20.53;68.74
10079;BME280;5078;42.544;22.966;2023-05-19T07:25:03;94140.56;;;19.86;71.77
10079;BME280;5078;42.544;22.966;2023-05-19T07:27:31;94145.63;;;20.24;68.96
10079;BME280;5078;42.544;22.966;2023-05-19T07:29:57;94139.88;;;20.93;64.94
10079;BME280;5078;42.544;22.966;2023-05-19T07:32:24;94138.44;;;20.78;66.01
10079;BME280;5078;42.544;22.966;2023-05-19T07:34:51;94134.81;;;20.84;65.97
10079;BME280;5078;42.544;22.966;2023-05-19T07:37:17;94130.13;;;21.03;64.76
10079;BME280;5078;42.544;22.966;2023-05-19T07:39:44;94130.63;;;21.00;63.28
10079;BME280;5078;42.544;22.966;2023-05-19T07:42:11;94128.03;;;20.52;64.78
10079;BME280;5078;42.544;22.966;2023-05-19T07:44:39;94129.19;;;20.14;65.42
10079;BME280;5078;42.544;22.966;2023-05-19T07:47:06;94120.16;;;20.80;63.97
10079;BME280;5078;42.544;22.966;2023-05-19T07:49:32;94122.41;;;21.19;63.42
10079;BME280;5078;42.544;22.966;2023-05-19T07:51:59;94123.09;;;21.14;59.65
10079;BME280;5078;42.544;22.966;2023-05-19T07:54:26;94099.41;;;20.81;60.04
10079;BME280;5078;42.544;22.966;2023-05-19T07:56:53;94123.25;;;21.19;58.06
10079;BME280;5078;42.544;22.966;2023-05-19T07:59:19;94104.69;;;21.35;55.96
10079;BME280;5078;42.544;22.966;2023-05-19T08:01:47;94112.28;;;21.61;54.14
10079;BME280;5078;42.544;22.966;2023-05-19T08:04:14;94113.00;;;21.68;56.43
10079;BME280;5078;42.544;22.966;2023-05-19T08:06:41;94113.84;;;21.45;54.50
10079;BME280;5078;42.544;22.966;2023-05-19T08:09:08;94113.97;;;21.39;54.13
10079;BME280;5078;42.544;22.966;2023-05-19T08:11:36;94113.84;;;21.10;57.02
10079;BME280;5078;42.544;22.966;2023-05-19T08:14:03;94120.28;;;21.09;55.82
10079;BME280;5078;42.544;22.966;2023-05-19T08:16:29;94113.63;;;21.47;56.52
10079;BME280;5078;42.544;22.966;2023-05-19T08:18:57;94115.00;;;21.61;55.09
10079;BME280;5078;42.544;22.966;2023-05-19T08:21:26;94118.50;;;20.67;57.11
10079;BME280;5078;42.544;22.966;2023-05-19T08:23:53;94122.63;;;20.70;58.88
10079;BME280;5078;42.544;22.966;2023-05-19T08:26:21;94116.06;;;21.37;59.58
10079;BME280;5078;42.544;22.966;2023-05-19T08:28:48;94117.34;;;21.69;58.42
10079;BME280;5078;42.544;22.966;2023-05-19T08:31:14;94114.44;;;21.12;58.27
10079;BME280;5078;42.544;22.966;2023-05-19T08:33:42;94111.16;;;21.45;56.56
10079;BME280;5078;42.544;22.966;2023-05-19T08:36:10;94114.78;;;21.16;57.50
10079;BME280;5078;42.544;22.966;2023-05-19T08:38:37;94108.31;;;20.70;55.19
10079;BME280;5078;42.544;22.966;2023-05-19T08:41:04;94109.56;;;20.55;60.90
10079;BME280;5078;42.544;22.966;2023-05-19T08:43:33;94105.75;;;21.10;59.59
10079;BME280;5078;42.544;22.966;2023-05-19T08:46:00;94118.75;;;21.72;58.67
10079;BME280;5078;42.544;22.966;2023-05-19T08:48:28;94113.66;;;21.87;56.61
10079;BME280;5078;42.544;22.966;2023-05-19T08:51:00;94114.56;;;21.52;57.19
10079;BME280;5078;42.544;22.966;2023-05-19T08:53:36;94101.78;;;21.24;57.64
10079;BME280;5078;42.544;22.966;2023-05-19T08:56:09;94109.56;;;21.85;55.86
10079;BME280;5078;42.544;22.966;2023-05-19T08:58:37;94103.78;;;21.93;55.58
10079;BME280;5078;42.544;22.966;2023-05-19T09:01:05;94091.59;;;21.79;54.70
10079;BME280;5078;42.544;22.966;2023-05-19T09:03:33;94096.16;;;21.90;54.59
10079;BME280;5078;42.544;22.966;2023-05-19T09:06:04;94109.56;;;21.85;52.00
10079;BME280;5078;42.544;22.966;2023-05-19T09:08:32;94103.44;;;21.89;51.09
10079;BME280;5078;42.544;22.966;2023-05-19T09:11:00;94094.06;;;22.21;50.06
10079;BME280;5078;42.544;22.966;2023-05-19T09:13:27;94095.41;;;21.54;51.50
10079;BME280;5078;42.544;22.966;2023-05-19T09:15:55;94097.44;;;21.23;53.93
10079;BME280;5078;42.544;22.966;2023-05-19T09:18:23;94095.31;;;21.25;54.98
10079;BME280;5078;42.544;22.966;2023-05-19T09:20:50;94089.34;;;20.88;51.69
10079;BME280;5078;42.544;22.966;2023-05-19T09:23:18;94093.81;;;21.18;53.25
10079;BME280;5078;42.544;22.966;2023-05-19T09:25:46;94084.47;;;21.72;52.77
10079;BME280;5078;42.544;22.966;2023-05-19T09:28:22;94080.78;;;21.03;53.17
10079;BME280;5078;42.544;22.966;2023-05-19T09:30:48;94097.31;;;21.30;54.97
10079;BME280;5078;42.544;22.966;2023-05-19T09:33:23;94097.34;;;20.95;53.51
10079;BME280;5078;42.544;22.966;2023-05-19T09:35:50;94092.88;;;20.46;54.87
10079;BME280;5078;42.544;22.966;2023-05-19T09:38:17;94090.28;;;19.68;51.84
10079;BME280;5078;42.544;22.966;2023-05-19T09:40:44;94101.47;;;19.46;53.59
10079;BME280;5078;42.544;22.966;2023-05-19T09:43:15;94103.09;;;19.84;53.32
10079;BME280;5078;42.544;22.966;2023-05-19T09:45:42;94097.88;;;19.52;54.24
10079;BME280;5078;42.544;22.966;2023-05-19T09:48:09;94097.75;;;19.47;55.12
10079;BME280;5078;42.544;22.966;2023-05-19T09:50:36;94096.69;;;19.85;55.88
10079;BME280;5078;42.544;22.966;2023-05-19T09:53:03;94097.84;;;20.50;54.24
10079;BME280;5078;42.544;22.966;2023-05-19T09:55:30;94090.88;;;20.72;52.01
10079;BME280;5078;42.544;22.966;2023-05-19T09:57:58;94094.28;;;21.15;51.30
10079;BME280;5078;42.544;22.966;2023-05-19T10:00:29;94104.38;;;20.54;53.46
10079;BME280;5078;42.544;22.966;2023-05-19T10:02:58;94087.69;;;20.63;56.23
10079;BME280;5078;42.544;22.966;2023-05-19T10:05:27;94089.69;;;21.15;53.61
10079;BME280;5078;42.544;22.966;2023-05-19T10:07:54;94086.38;;;21.37;53.30
10079;BME280;5078;42.544;22.966;2023-05-19T10:10:21;94084.28;;;21.62;51.81
10079;BME280;5078;42.544;22.966;2023-05-19T10:12:48;94081.38;;;21.52;50.46
10079;BME280;5078;42.544;22.966;2023-05-19T10:15:16;94088.75;;;21.21;51.73
10079;BME280;5078;42.544;22.966;2023-05-19T10:17:45;94089.25;;;20.41;49.49
10079;BME280;5078;42.544;22.966;2023-05-19T10:20:14;94085.72;;;19.98;50.93
10079;BME280;5078;42.544;22.966;2023-05-19T10:22:43;94089.56;;;19.91;51.39
10079;BME280;5078;42.544;22.966;2023-05-19T10:25:11;94090.16;;;19.74;51.03
10079;BME280;5078;42.544;22.966;2023-05-19T10:27:44;94079.00;;;19.89;49.12
10079;BME280;5078;42.544;22.966;2023-05-19T10:30:14;94084.25;;;20.44;46.47
10079;BME280;5078;42.544;22.966;2023-05-19T10:32:45;94076.00;;;20.70;46.07
10079;BME280;5078;42.544;22.966;2023-05-19T10:35:27;94073.41;;;20.86;46.39
10079;BME280;5078;42.544;22.966;2023-05-19T10:38:09;94083.72;;;20.78;43.92
10079;BME280;5078;42.544;22.966;2023-05-19T10:40:48;94071.53;;;20.87;45.51
10079;BME280;5078;42.544;22.966;2023-05-19T10:43:23;94074.09;;;20.70;46.02
10079;BME280;5078;42.544;22.966;2023-05-19T10:45:52;94071.88;;;20.90;47.89
10079;BME280;5078;42.544;22.966;2023-05-19T10:48:20;94067.88;;;21.28;49.48
10079;BME280;5078;42.544;22.966;2023-05-19T10:50:52;94072.66;;;21.26;47.14
10079;BME280;5078;42.544;22.966;2023-05-19T10:53:19;94067.22;;;21.09;46.55
10079;BME280;5078;42.544;22.966;2023-05-19T10:55:51;94067.31;;;21.03;45.01
10079;BME280;5078;42.544;22.966;2023-05-19T10:58:36;94068.00;;;20.98;45.52
10079;BME280;5078;42.544;22.966;2023-05-19T11:01:06;94048.56;;;20.96;46.00
10079;BME280;5078;42.544;22.966;2023-05-19T11:03:43;94064.38;;;21.16;46.06
10079;BME280;5078;42.544;22.966;2023-05-19T11:06:24;94055.34;;;21.22;47.10
10079;BME280;5078;42.544;22.966;2023-05-19T11:08:52;94065.47;;;21.67;46.64
10079;BME280;5078;42.544;22.966;2023-05-19T11:11:19;94057.44;;;21.44;41.45
10079;BME280;5078;42.544;22.966;2023-05-19T11:13:47;94056.13;;;21.58;43.70
10079;BME280;5078;42.544;22.966;2023-05-19T11:16:18;94066.34;;;21.21;41.64
10079;BME280;5078;42.544;22.966;2023-05-19T11:18:50;94060.75;;;21.10;40.04
10079;BME280;5078;42.544;22.966;2023-05-19T11:21:19;94062.41;;;21.00;38.41
10079;BME280;5078;42.544;22.966;2023-05-19T11:23:45;94052.16;;;21.25;39.70
10079;BME280;5078;42.544;22.966;2023-05-19T11:26:12;94053.03;;;21.66;42.31
10079;BME280;5078;42.544;22.966;2023-05-19T11:28:39;94044.59;;;21.91;41.00
10079;BME280;5078;42.544;22.966;2023-05-19T11:31:07;94040.28;;;22.19;39.22
10079;BME280;5078;42.544;22.966;2023-05-19T11:33:36;94051.94;;;22.08;40.71
10079;BME280;5078;42.544;22.966;2023-05-19T11:36:05;94040.13;;;21.97;41.21
10079;BME280;5078;42.544;22.966;2023-05-19T11:38:33;94046.78;;;21.78;41.27
10079;BME280;5078;42.544;22.966;2023-05-19T11:41:00;94054.38;;;21.28;39.31
10079;BME280;5078;42.544;22.966;2023-05-19T11:43:26;94058.97;;;21.16;40.70
10079;BME280;5078;42.544;22.966;2023-05-19T11:45:53;94033.66;;;20.94;40.95
10079;BME280;5078;42.544;22.966;2023-05-19T11:48:21;94045.63;;;20.98;39.30
10079;BME280;5078;42.544;22.966;2023-05-19T11:50:48;94031.72;;;21.53;39.06
10079;BME280;5078;42.544;22.966;2023-05-19T11:53:16;94026.38;;;21.98;38.50
10079;BME280;5078;42.544;22.966;2023-05-19T11:55:44;94001.66;;;22.35;38.78
10079;BME280;5078;42.544;22.966;2023-05-19T11:58:11;94028.84;;;22.00;36.82
10079;BME280;5078;42.544;22.966;2023-05-19T12:00:39;94034.56;;;21.46;37.53
10079;BME280;5078;42.544;22.966;2023-05-19T12:03:07;94032.13;;;22.02;37.28
10079;BME280;5078;42.544;22.966;2023-05-19T12:05:36;94031.22;;;22.42;36.71
10079;BME280;5078;42.544;22.966;2023-05-19T12:08:04;94030.38;;;22.92;36.77
10079;BME280;5078;42.544;22.966;2023-05-19T12:10:32;94028.66;;;23.20;39.44
10079;BME280;5078;42.544;22.966;2023-05-19T12:13:00;94017.53;;;22.82;40.15
10079;BME280;5078;42.544;22.966;2023-05-19T12:15:27;94007.16;;;22.57;41.27
10079;BME280;5078;42.544;22.966;2023-05-19T12:17:56;94009.13;;;22.16;42.26
10079;BME280;5078;42.544;22.966;2023-05-19T12:20:23;93999.47;;;21.87;42.85
10079;BME280;5078;42.544;22.966;2023-05-19T12:22:50;94004.44;;;21.66;45.05
10079;BME280;5078;42.544;22.966;2023-05-19T12:25:18;94007.28;;;21.88;44.74
10079;BME280;5078;42.544;22.966;2023-05-19T12:27:47;94006.38;;;21.54;44.08
10079;BME280;5078;42.544;22.966;2023-05-19T12:30:15;93994.63;;;21.60;45.63
10079;BME280;5078;42.544;22.966;2023-05-19T12:32:42;94002.53;;;21.38;45.27
10079;BME280;5078;42.544;22.966;2023-05-19T12:35:09;94012.50;;;21.38;44.86
10079;BME280;5078;42.544;22.966;2023-05-19T12:37:39;94019.31;;;21.52;45.63
10079;BME280;5078;42.544;22.966;2023-05-19T12:40:08;94008.91;;;21.32;39.00
10079;BME280;5078;42.544;22.966;2023-05-19T12:42:35;94023.69;;;21.06;39.55
10079;BME280;5078;42.544;22.966;2023-05-19T12:45:04;94032.66;;;20.59;47.42
10079;BME280;5078;42.544;22.966;2023-05-19T12:47:32;94038.22;;;19.92;50.66
10079;BME280;5078;42.544;22.966;2023-05-19T12:50:03;94039.53;;;19.53;52.43
10079;BME280;5078;42.544;22.966;2023-05-19T12:52:33;94042.03;;;19.17;52.65
10079;BME280;5078;42.544;22.966;2023-05-19T12:55:01;94033.28;;;19.04;53.45
10079;BME280;5078;42.544;22.966;2023-05-19T12:57:33;94042.00;;;18.99;53.70
10079;BME280;5078;42.544;22.966;2023-05-19T13:00:02;94040.38;;;18.98;51.47
10079;BME280;5078;42.544;22.966;2023-05-19T13:02:33;94049.44;;;18.79;48.50
10079;BME280;5078;42.544;22.966;2023-05-19T13:05:00;94049.16;;;18.87;48.32